sensor_id;sensor_type;location;lat;lon;timestamp;pressure;altitude;pressure_sealevel;temperature;humidity
68807;BME280;55800;54.272;18.558;2023-07-28T00:01:17;99955.19;;;15.39;54.67
68807;BME280;55800;54.272;18.558;2023-07-28T00:03:48;99943.56;;;15.38;54.55
68807;BME280;55800;54.272;18.558;2023-07-28T00:06:20;99941.72;;;15.39;54.57
68807;BME280;55800;54.272;18.558;2023-07-28T00:08:49;99939.91;;;15.39;54.46
68807;BME280;55800;54.272;18.558;2023-07-28T00:11:21;99931.81;;;15.39;54.67
68807;BME280;55800;54.272;18.558;2023-07-28T00:13:50;99941.72;;;15.39;54.67
68807;BME280;55800;54.272;18.558;2023-07-28T00:16:19;99934.50;;;15.39;54.66
68807;BME280;55800;54.272;18.558;2023-07-28T00:18:48;99921.03;;;15.39;54.52
68807;BME280;55800;54.272;18.558;2023-07-28T00:21:19;99923.75;;;15.39;54.74
68807;BME280;55800;54.272;18.558;2023-07-28T00:23:50;99913.81;;;15.40;54.58
68807;BME280;55800;54.272;18.558;2023-07-28T00:26:19;99914.66;;;15.40;54.63
68807;BME280;55800;54.272;18.558;2023-07-28T00:28:48;99908.31;;;15.41;54.54
68807;BME280;55800;54.272;18.558;2023-07-28T00:31:17;99901.94;;;15.42;54.62
68807;BME280;55800;54.272;18.558;2023-07-28T00:33:47;99907.34;;;15.42;54.51
68807;BME280;55800;54.272;18.558;2023-07-28T00:36:20;99903.72;;;15.43;54.72
68807;BME280;55800;54.272;18.558;2023-07-28T00:38:53;99899.25;;;15.42;54.79
68807;BME280;55800;54.272;18.558;2023-07-28T00:41:23;99899.38;;;15.41;54.63
68807;BME280;55800;54.272;18.558;2023-07-28T00:43:55;99896.81;;;15.39;54.93
68807;BME280;55800;54.272;18.558;2023-07-28T00:46:27;99894.94;;;15.40;54.76
68807;BME280;55800;54.272;18.558;2023-07-28T00:48:56;99887.00;;;15.38;54.85
68807;BME280;55800;54.272;18.558;2023-07-28T00:51:27;99886.25;;;15.36;54.85
68807;BME280;55800;54.272;18.558;2023-07-28T00:53:56;99895.28;;;15.35;54.69
68807;BME280;55800;54.272;18.558;2023-07-28T00:56:27;99876.53;;;15.34;54.85
68807;BME280;55800;54.272;18.558;2023-07-28T00:58:56;99885.63;;;15.33;54.76
68807;BME280;55800;54.272;18.558;2023-07-28T01:01:25;99883.00;;;15.31;55.00
68807;BME280;55800;54.272;18.558;2023-07-28T01:03:58;99875.91;;;15.30;54.91
68807;BME280;55800;54.272;18.558;2023-07-28T01:06:35;99878.63;;;15.30;55.04
68807;BME280;55800;54.272;18.558;2023-07-28T01:09:06;99874.19;;;15.29;54.85
68807;BME280;55800;54.272;18.558;2023-07-28T01:11:38;99876.03;;;15.29;54.96
68807;BME280;55800;54.272;18.558;2023-07-28T01:14:07;99870.66;;;15.29;54.91
68807;BME280;55800;54.272;18.558;2023-07-28T01:16:36;99864.41;;;15.28;55.57
68807;BME280;55800;54.272;18.558;2023-07-28T01:19:05;99859.00;;;15.28;55.19
68807;BME280;55800;54.272;18.558;2023-07-28T01:21:36;99859.00;;;15.28;54.99
68807;BME280;55800;54.272;18.558;2023-07-28T01:24:09;99855.44;;;15.28;54.92
68807;BME280;55800;54.272;18.558;2023-07-28T01:26:41;99863.41;;;15.29;55.16
68807;BME280;55800;54.272;18.558;2023-07-28T01:29:10;99857.06;;;15.30;55.29
68807;BME280;55800;54.272;18.558;2023-07-28T01:31:45;99854.38;;;15.30;56.31
68807;BME280;55800;54.272;18.558;2023-07-28T01:34:14;99857.06;;;15.30;55.42
68807;BME280;55800;54.272;18.558;2023-07-28T01:36:46;99856.94;;;15.32;55.27
68807;BME280;55800;54.272;18.558;2023-07-28T01:39:14;99857.81;;;15.32;55.47
68807;BME280;55800;54.272;18.558;2023-07-28T01:41:44;99853.38;;;15.31;55.14
68807;BME280;55800;54.272;18.558;2023-07-28T01:44:13;99855.13;;;15.32;55.23
68807;BME280;55800;54.272;18.558;2023-07-28T01:46:43;99854.13;;;15.33;55.24
68807;BME280;55800;54.272;18.558;2023-07-28T01:49:12;99853.06;;;15.36;55.91
68807;BME280;55800;54.272;18.558;2023-07-28T01:51:41;99848.53;;;15.36;55.27
68807;BME280;55800;54.272;18.558;2023-07-28T01:54:10;99842.28;;;15.36;55.31
68807;BME280;55800;54.272;18.558;2023-07-28T01:56:39;99838.72;;;15.35;56.93
68807;BME280;55800;54.272;18.558;2023-07-28T01:59:10;99841.19;;;15.38;55.89
68807;BME280;55800;54.272;18.558;2023-07-28T02:01:39;99831.28;;;15.39;55.59
68807;BME280;55800;54.272;18.558;2023-07-28T02:04:08;99834.84;;;15.39;55.51
68807;BME280;55800;54.272;18.558;2023-07-28T02:06:37;99833.88;;;15.40;59.58
68807;BME280;55800;54.272;18.558;2023-07-28T02:09:06;99828.47;;;15.40;56.68
68807;BME280;55800;54.272;18.558;2023-07-28T02:11:36;99826.53;;;15.42;56.22
68807;BME280;55800;54.272;18.558;2023-07-28T02:14:07;99819.22;;;15.44;56.14
68807;BME280;55800;54.272;18.558;2023-07-28T02:16:41;99815.75;;;15.42;60.82
68807;BME280;55800;54.272;18.558;2023-07-28T02:19:10;99836.88;;;15.48;61.64
68807;BME280;55800;54.272;18.558;2023-07-28T02:21:39;99824.41;;;15.47;60.08
68807;BME280;55800;54.272;18.558;2023-07-28T02:24:08;99823.53;;;15.47;58.82
68807;BME280;55800;54.272;18.558;2023-07-28T02:26:37;99815.31;;;15.48;57.67
68807;BME280;55800;54.272;18.558;2023-07-28T02:29:06;99817.06;;;15.49;57.13
68807;BME280;55800;54.272;18.558;2023-07-28T02:31:38;99812.53;;;15.50;57.04
68807;BME280;55800;54.272;18.558;2023-07-28T02:34:11;99811.66;;;15.49;56.75
68807;BME280;55800;54.272;18.558;2023-07-28T02:36:40;99817.06;;;15.49;56.59
68807;BME280;55800;54.272;18.558;2023-07-28T02:39:09;99819.63;;;15.51;57.69
68807;BME280;55800;54.272;18.558;2023-07-28T02:41:38;99820.50;;;15.51;59.72
68807;BME280;55800;54.272;18.558;2023-07-28T02:44:07;99824.91;;;15.52;57.25
68807;BME280;55800;54.272;18.558;2023-07-28T02:46:37;99825.53;;;15.56;56.91
68807;BME280;55800;54.272;18.558;2023-07-28T02:49:07;99816.72;;;15.54;56.50
68807;BME280;55800;54.272;18.558;2023-07-28T02:51:38;99814.84;;;15.54;56.58
68807;BME280;55800;54.272;18.558;2023-07-28T02:54:07;99820.25;;;15.54;56.48
68807;BME280;55800;54.272;18.558;2023-07-28T02:56:36;99815.72;;;15.55;56.46
68807;BME280;55800;54.272;18.558;2023-07-28T02:59:10;99818.34;;;15.56;56.42
68807;BME280;55800;54.272;18.558;2023-07-28T03:01:39;99825.53;;;15.56;56.36
68807;BME280;55800;54.272;18.558;2023-07-28T03:04:08;99820.03;;;15.57;56.39
68807;BME280;55800;54.272;18.558;2023-07-28T03:06:59;99817.34;;;15.57;56.15
68807;BME280;55800;54.272;18.558;2023-07-28T03:09:29;99820.91;;;15.58;56.23
68807;BME280;55800;54.272;18.558;2023-07-28T03:12:02;99816.38;;;15.58;56.07
68807;BME280;55800;54.272;18.558;2023-07-28T03:14:33;99822.59;;;15.59;56.19
68807;BME280;55800;54.272;18.558;2023-07-28T03:17:02;99814.44;;;15.60;56.24
68807;BME280;55800;54.272;18.558;2023-07-28T03:19:31;99817.13;;;15.60;56.15
68807;BME280;55800;54.272;18.558;2023-07-28T03:22:02;99814.44;;;15.60;58.62
68807;BME280;55800;54.272;18.558;2023-07-28T03:24:31;99813.78;;;15.57;58.28
68807;BME280;55800;54.272;18.558;2023-07-28T03:27:00;99818.09;;;15.59;58.50
68807;BME280;55800;54.272;18.558;2023-07-28T03:29:29;99814.84;;;15.54;59.74
68807;BME280;55800;54.272;18.558;2023-07-28T03:31:58;99806.44;;;15.59;58.37
68807;BME280;55800;54.272;18.558;2023-07-28T03:34:28;99810.75;;;15.61;58.07
68807;BME280;55800;54.272;18.558;2023-07-28T03:36:59;99806.22;;;15.62;57.86
68807;BME280;55800;54.272;18.558;2023-07-28T03:39:30;99798.00;;;15.63;57.56
68807;BME280;55800;54.272;18.558;2023-07-28T03:41:59;99815.91;;;15.65;57.46
68807;BME280;55800;54.272;18.558;2023-07-28T03:44:32;99793.50;;;15.64;57.70
68807;BME280;55800;54.272;18.558;2023-07-28T03:47:01;99797.88;;;15.65;57.13
68807;BME280;55800;54.272;18.558;2023-07-28T03:49:34;99784.53;;;15.63;57.01
68807;BME280;55800;54.272;18.558;2023-07-28T03:52:03;99790.66;;;15.66;56.84
68807;BME280;55800;54.272;18.558;2023-07-28T03:54:34;99788.97;;;15.65;56.87
68807;BME280;55800;54.272;18.558;2023-07-28T03:57:03;99789.72;;;15.67;56.67
68807;BME280;55800;54.272;18.558;2023-07-28T03:59:32;99791.31;;;15.69;57.13
68807;BME280;55800;54.272;18.558;2023-07-28T04:02:02;99791.31;;;15.69;56.98
68807;BME280;55800;54.272;18.558;2023-07-28T04:04:31;99791.19;;;15.71;56.77
68807;BME280;55800;54.272;18.558;2023-07-28T04:07:00;99783.09;;;15.71;56.81
68807;BME280;55800;54.272;18.558;2023-07-28T04:09:29;99783.97;;;15.71;56.69
68807;BME280;55800;54.272;18.558;2023-07-28T04:11:59;99776.72;;;15.72;56.74
68807;BME280;55800;54.272;18.558;2023-07-28T04:14:28;99769.38;;;15.74;56.82
68807;BME280;55800;54.272;18.558;2023-07-28T04:16:57;99769.28;;;15.75;56.75
68807;BME280;55800;54.272;18.558;2023-07-28T04:19:26;99768.28;;;15.76;56.66
68807;BME280;55800;54.272;18.558;2023-07-28T04:22:00;99768.19;;;15.78;56.66
68807;BME280;55800;54.272;18.558;2023-07-28T04:24:30;99772.38;;;15.82;56.72
68807;BME280;55800;54.272;18.558;2023-07-28T04:27:01;99764.28;;;15.82;56.95
68807;BME280;55800;54.272;18.558;2023-07-28T04:29:30;99761.34;;;15.85;57.11
68807;BME280;55800;54.272;18.558;2023-07-28T04:32:00;99755.59;;;15.89;57.33
68807;BME280;55800;54.272;18.558;2023-07-28T04:34:32;99764.56;;;15.90;58.68
68807;BME280;55800;54.272;18.558;2023-07-28T04:37:32;99760.78;;;15.92;60.12
68807;BME280;55800;54.272;18.558;2023-07-28T04:40:02;99755.03;;;15.97;59.00
68807;BME280;55800;54.272;18.558;2023-07-28T04:42:37;99753.91;;;15.99;57.80
68807;BME280;55800;54.272;18.558;2023-07-28T04:45:07;99744.72;;;16.02;57.49
68807;BME280;55800;54.272;18.558;2023-07-28T04:47:36;99738.25;;;16.04;57.22
68807;BME280;55800;54.272;18.558;2023-07-28T04:50:11;99734.53;;;16.05;57.52
68807;BME280;55800;54.272;18.558;2023-07-28T04:53:00;99738.84;;;16.08;57.58
68807;BME280;55800;54.272;18.558;2023-07-28T04:55:35;99735.19;;;16.09;57.30
68807;BME280;55800;54.272;18.558;2023-07-28T04:58:09;99735.06;;;16.10;57.00
68807;BME280;55800;54.272;18.558;2023-07-28T05:00:46;99732.13;;;16.13;57.05
68807;BME280;55800;54.272;18.558;2023-07-28T05:03:35;99737.41;;;16.15;57.09
68807;BME280;55800;54.272;18.558;2023-07-28T05:06:17;99737.16;;;16.18;57.29
68807;BME280;55800;54.272;18.558;2023-07-28T05:08:47;99730.66;;;16.20;57.00
68807;BME280;55800;54.272;18.558;2023-07-28T05:11:21;99733.13;;;16.23;57.26
68807;BME280;55800;54.272;18.558;2023-07-28T05:13:56;99728.31;;;16.27;57.31
68807;BME280;55800;54.272;18.558;2023-07-28T05:16:25;99734.34;;;16.30;57.10
68807;BME280;55800;54.272;18.558;2023-07-28T05:19:15;99727.84;;;16.33;57.33
68807;BME280;55800;54.272;18.558;2023-07-28T05:22:02;99734.72;;;16.37;57.04
68807;BME280;55800;54.272;18.558;2023-07-28T05:24:51;99733.50;;;16.41;57.25
68807;BME280;55800;54.272;18.558;2023-07-28T05:27:25;99732.28;;;16.45;57.34
68807;BME280;55800;54.272;18.558;2023-07-28T05:29:55;99722.97;;;16.49;57.23
68807;BME280;55800;54.272;18.558;2023-07-28T05:32:29;99722.63;;;16.54;57.21
68807;BME280;55800;54.272;18.558;2023-07-28T05:35:16;99715.13;;;16.57;57.36
68807;BME280;55800;54.272;18.558;2023-07-28T05:37:51;99717.47;;;16.62;57.46
68807;BME280;55800;54.272;18.558;2023-07-28T05:40:20;99707.16;;;16.67;57.30
68807;BME280;55800;54.272;18.558;2023-07-28T05:42:49;99705.06;;;16.70;57.72
68807;BME280;55800;54.272;18.558;2023-07-28T05:45:20;99710.81;;;16.77;57.51
68807;BME280;55800;54.272;18.558;2023-07-28T05:47:52;99704.91;;;16.83;57.68
68807;BME280;55800;54.272;18.558;2023-07-28T05:50:21;99703.53;;;16.88;57.50
68807;BME280;55800;54.272;18.558;2023-07-28T05:52:53;99703.03;;;16.94;57.63
68807;BME280;55800;54.272;18.558;2023-07-28T05:55:22;99701.56;;;17.01;57.63
68807;BME280;55800;54.272;18.558;2023-07-28T05:57:51;99698.22;;;17.09;58.06
68807;BME280;55800;54.272;18.558;2023-07-28T06:00:22;99702.97;;;17.16;57.90
68807;BME280;55800;54.272;18.558;2023-07-28T06:02:57;99693.41;;;17.24;58.06
68807;BME280;55800;54.272;18.558;2023-07-28T06:05:46;99702.44;;;17.34;58.13
68807;BME280;55800;54.272;18.558;2023-07-28T06:08:15;99695.53;;;17.41;57.98
68807;BME280;55800;54.272;18.558;2023-07-28T06:10:51;99696.50;;;17.51;57.92
68807;BME280;55800;54.272;18.558;2023-07-28T06:13:23;99696.69;;;17.59;57.81
68807;BME280;55800;54.272;18.558;2023-07-28T06:15:54;99692.22;;;17.69;58.11
68807;BME280;55800;54.272;18.558;2023-07-28T06:18:29;99695.25;;;17.75;58.20
68807;BME280;55800;54.272;18.558;2023-07-28T06:21:08;99705.13;;;17.86;58.53
68807;BME280;55800;54.272;18.558;2023-07-28T06:23:37;99699.97;;;17.94;58.54
68807;BME280;55800;54.272;18.558;2023-07-28T06:26:09;99695.44;;;18.04;58.46
68807;BME280;55800;54.272;18.558;2023-07-28T06:28:42;99695.78;;;18.11;58.61
68807;BME280;55800;54.272;18.558;2023-07-28T06:31:16;99696.81;;;18.19;58.99
68807;BME280;55800;54.272;18.558;2023-07-28T06:33:51;99692.72;;;18.25;59.34
68807;BME280;55800;54.272;18.558;2023-07-28T06:36:20;99693.91;;;18.32;58.73
68807;BME280;55800;54.272;18.558;2023-07-28T06:38:55;99692.22;;;18.40;58.72
68807;BME280;55800;54.272;18.558;2023-07-28T06:41:24;99697.84;;;18.48;58.48
68807;BME280;55800;54.272;18.558;2023-07-28T06:44:08;99698.00;;;18.56;59.03
68807;BME280;55800;54.272;18.558;2023-07-28T06:46:42;99687.63;;;18.61;59.25
68807;BME280;55800;54.272;18.558;2023-07-28T06:49:18;99674.25;;;18.69;59.16
68807;BME280;55800;54.272;18.558;2023-07-28T06:51:50;99676.97;;;18.79;58.89
68807;BME280;55800;54.272;18.558;2023-07-28T06:54:23;99682.59;;;18.87;59.25
68807;BME280;55800;54.272;18.558;2023-07-28T06:57:05;99679.88;;;18.97;59.13
68807;BME280;55800;54.272;18.558;2023-07-28T06:59:40;99688.88;;;19.07;58.98
68807;BME280;55800;54.272;18.558;2023-07-28T07:02:19;99680.63;;;19.18;59.54
68807;BME280;55800;54.272;18.558;2023-07-28T07:04:52;99680.75;;;19.26;59.13
68807;BME280;55800;54.272;18.558;2023-07-28T07:07:21;99679.09;;;19.34;58.91
68807;BME280;55800;54.272;18.558;2023-07-28T07:10:18;99687.94;;;19.46;58.98
68807;BME280;55800;54.272;18.558;2023-07-28T07:12:51;99690.78;;;19.54;58.77
68807;BME280;55800;54.272;18.558;2023-07-28T07:15:29;99679.09;;;19.63;59.09
68807;BME280;55800;54.272;18.558;2023-07-28T07:18:03;99686.22;;;19.74;58.75
68807;BME280;55800;54.272;18.558;2023-07-28T07:20:35;99684.50;;;19.82;58.74
68807;BME280;55800;54.272;18.558;2023-07-28T07:23:08;99679.91;;;19.92;58.62
68807;BME280;55800;54.272;18.558;2023-07-28T07:25:51;99689.88;;;20.01;58.45
68807;BME280;55800;54.272;18.558;2023-07-28T07:28:20;99680.56;;;20.13;58.26
68807;BME280;55800;54.272;18.558;2023-07-28T07:30:59;99671.56;;;20.23;58.21
68807;BME280;55800;54.272;18.558;2023-07-28T07:33:45;99670.97;;;20.29;58.54
68807;BME280;55800;54.272;18.558;2023-07-28T07:36:25;99668.47;;;20.45;58.30
68807;BME280;55800;54.272;18.558;2023-07-28T07:38:57;99676.28;;;20.57;57.80
68807;BME280;55800;54.272;18.558;2023-07-28T07:41:47;99677.81;;;20.69;57.80
68807;BME280;55800;54.272;18.558;2023-07-28T07:44:32;99673.88;;;20.81;57.79
68807;BME280;55800;54.272;18.558;2023-07-28T07:47:37;99668.94;;;20.94;57.42
68807;BME280;55800;54.272;18.558;2023-07-28T07:50:11;99679.47;;;21.07;57.11
68807;BME280;55800;54.272;18.558;2023-07-28T07:52:47;99686.53;;;21.18;57.20
68807;BME280;55800;54.272;18.558;2023-07-28T07:55:37;99671.34;;;21.25;56.72
68807;BME280;55800;54.272;18.558;2023-07-28T07:58:15;99673.28;;;21.32;56.98
68807;BME280;55800;54.272;18.558;2023-07-28T08:01:21;99681.84;;;21.37;56.38
68807;BME280;55800;54.272;18.558;2023-07-28T08:04:09;99679.47;;;21.42;56.84
68807;BME280;55800;54.272;18.558;2023-07-28T08:06:48;99687.63;;;21.42;56.26
68807;BME280;55800;54.272;18.558;2023-07-28T08:09:43;99684.53;;;21.37;56.90
68807;BME280;55800;54.272;18.558;2023-07-28T08:12:18;99682.13;;;21.34;56.87
68807;BME280;55800;54.272;18.558;2023-07-28T08:15:10;99699.75;;;21.30;56.18
68807;BME280;55800;54.272;18.558;2023-07-28T08:18:44;99691.66;;;21.21;55.91
68807;BME280;55800;54.272;18.558;2023-07-28T08:21:30;99688.72;;;21.14;56.30
68807;BME280;55800;54.272;18.558;2023-07-28T08:24:36;99687.28;;;21.10;56.10
68807;BME280;55800;54.272;18.558;2023-07-28T08:27:25;99682.34;;;21.06;56.15
68807;BME280;55800;54.272;18.558;2023-07-28T08:30:12;99692.94;;;20.99;56.54
68807;BME280;55800;54.272;18.558;2023-07-28T08:32:46;99691.53;;;20.95;56.15
68807;BME280;55800;54.272;18.558;2023-07-28T08:35:33;99691.41;;;20.87;56.54
68807;BME280;55800;54.272;18.558;2023-07-28T08:38:20;99688.16;;;20.83;56.36
68807;BME280;55800;54.272;18.558;2023-07-28T08:41:08;99686.06;;;20.77;56.38
68807;BME280;55800;54.272;18.558;2023-07-28T08:43:54;99675.22;;;20.68;56.42
68807;BME280;55800;54.272;18.558;2023-07-28T08:46:41;99685.69;;;20.63;56.17
68807;BME280;55800;54.272;18.558;2023-07-28T08:49:27;99687.28;;;20.56;56.54
68807;BME280;55800;54.272;18.558;2023-07-28T08:52:16;99695.75;;;20.53;56.35
68807;BME280;55800;54.272;18.558;2023-07-28T08:55:03;99692.31;;;20.51;56.55
68807;BME280;55800;54.272;18.558;2023-07-28T08:57:51;99689.50;;;20.43;56.38
68807;BME280;55800;54.272;18.558;2023-07-28T09:00:38;99682.38;;;20.42;56.59
68807;BME280;55800;54.272;18.558;2023-07-28T09:03:26;99688.53;;;20.34;56.70
68807;BME280;55800;54.272;18.558;2023-07-28T09:06:13;99691.13;;;20.36;56.86
68807;BME280;55800;54.272;18.558;2023-07-28T09:09:00;99694.66;;;20.36;57.26
68807;BME280;55800;54.272;18.558;2023-07-28T09:11:47;99696.22;;;20.39;57.32
68807;BME280;55800;54.272;18.558;2023-07-28T09:14:36;99702.53;;;20.39;57.09
68807;BME280;55800;54.272;18.558;2023-07-28T09:17:23;99693.50;;;20.39;57.26
68807;BME280;55800;54.272;18.558;2023-07-28T09:20:12;99697.94;;;20.40;57.32
68807;BME280;55800;54.272;18.558;2023-07-28T09:22:59;99696.22;;;20.39;57.17
68807;BME280;55800;54.272;18.558;2023-07-28T09:25:45;99692.66;;;20.38;57.86
68807;BME280;55800;54.272;18.558;2023-07-28T09:28:36;99696.94;;;20.41;57.46
68807;BME280;55800;54.272;18.558;2023-07-28T09:31:30;99689.81;;;20.40;57.67
68807;BME280;55800;54.272;18.558;2023-07-28T09:34:23;99692.91;;;20.45;57.37
68807;BME280;55800;54.272;18.558;2023-07-28T09:37:11;99684.63;;;20.46;57.81
68807;BME280;55800;54.272;18.558;2023-07-28T09:39:59;99682.31;;;20.51;57.59
68807;BME280;55800;54.272;18.558;2023-07-28T09:42:46;99691.31;;;20.52;57.62
68807;BME280;55800;54.272;18.558;2023-07-28T09:45:35;99699.19;;;20.55;57.66
68807;BME280;55800;54.272;18.558;2023-07-28T09:48:23;99694.59;;;20.55;57.70
68807;BME280;55800;54.272;18.558;2023-07-28T09:51:11;99696.16;;;20.58;57.71
68807;BME280;55800;54.272;18.558;2023-07-28T09:53:58;99694.13;;;20.60;57.63
68807;BME280;55800;54.272;18.558;2023-07-28T09:56:46;99689.41;;;20.62;57.76
68807;BME280;55800;54.272;18.558;2023-07-28T09:59:35;99687.41;;;20.64;57.51
68807;BME280;55800;54.272;18.558;2023-07-28T10:02:24;99686.25;;;20.66;57.79
68807;BME280;55800;54.272;18.558;2023-07-28T10:05:12;99692.53;;;20.67;57.83
68807;BME280;55800;54.272;18.558;2023-07-28T10:08:00;99684.81;;;20.72;57.76
68807;BME280;55800;54.272;18.558;2023-07-28T10:10:48;99686.91;;;20.78;57.89
68807;BME280;55800;54.272;18.558;2023-07-28T10:13:41;99690.19;;;20.81;58.02
68807;BME280;55800;54.272;18.558;2023-07-28T10:16:29;99691.41;;;20.87;57.85
68807;BME280;55800;54.272;18.558;2023-07-28T10:19:19;99686.09;;;20.95;57.93
68807;BME280;55800;54.272;18.558;2023-07-28T10:22:07;99684.78;;;20.99;57.87
68807;BME280;55800;54.272;18.558;2023-07-28T10:24:55;99697.78;;;21.05;57.54
68807;BME280;55800;54.272;18.558;2023-07-28T10:27:44;99698.16;;;21.10;57.23
68807;BME280;55800;54.272;18.558;2023-07-28T10:30:35;99695.69;;;21.17;57.24
68807;BME280;55800;54.272;18.558;2023-07-28T10:33:26;99701.13;;;21.17;57.14
68807;BME280;55800;54.272;18.558;2023-07-28T10:36:14;99697.19;;;21.11;57.47
68807;BME280;55800;54.272;18.558;2023-07-28T10:39:05;99700.19;;;21.08;57.59
68807;BME280;55800;54.272;18.558;2023-07-28T10:42:00;99691.03;;;21.09;57.37
68807;BME280;55800;54.272;18.558;2023-07-28T10:44:46;99699.66;;;21.05;57.57
68807;BME280;55800;54.272;18.558;2023-07-28T10:47:34;99701.22;;;21.07;57.52
68807;BME280;55800;54.272;18.558;2023-07-28T10:50:20;99700.19;;;21.08;57.70
68807;BME280;55800;54.272;18.558;2023-07-28T10:53:08;99700.88;;;21.10;57.64
68807;BME280;55800;54.272;18.558;2023-07-28T10:55:57;99703.72;;;21.18;57.30
68807;BME280;55800;54.272;18.558;2023-07-28T10:58:44;99703.72;;;21.18;57.57
68807;BME280;55800;54.272;18.558;2023-07-28T11:01:31;99705.13;;;21.22;57.42
68807;BME280;55800;54.272;18.558;2023-07-28T11:04:20;99705.66;;;21.26;57.28
68807;BME280;55800;54.272;18.558;2023-07-28T11:07:08;99713.81;;;21.26;57.61
68807;BME280;55800;54.272;18.558;2023-07-28T11:09:54;99709.94;;;21.28;57.52
68807;BME280;55800;54.272;18.558;2023-07-28T11:12:42;99701.94;;;21.27;57.37
68807;BME280;55800;54.272;18.558;2023-07-28T11:15:29;99706.19;;;21.29;57.54
68807;BME280;55800;54.272;18.558;2023-07-28T11:18:15;99700.47;;;21.32;57.31
68807;BME280;55800;54.272;18.558;2023-07-28T11:21:02;99709.84;;;21.38;57.22
68807;BME280;55800;54.272;18.558;2023-07-28T11:23:49;99708.69;;;21.40;57.33
68807;BME280;55800;54.272;18.558;2023-07-28T11:26:36;99694.63;;;21.45;57.30
68807;BME280;55800;54.272;18.558;2023-07-28T11:29:24;99701.31;;;21.50;57.52
68807;BME280;55800;54.272;18.558;2023-07-28T11:32:12;99699.69;;;21.57;57.86
68807;BME280;55800;54.272;18.558;2023-07-28T11:35:05;99698.06;;;21.64;57.80
68807;BME280;55800;54.272;18.558;2023-07-28T11:37:53;99703.41;;;21.74;57.77
68807;BME280;55800;54.272;18.558;2023-07-28T11:40:39;99705.34;;;21.82;57.72
68807;BME280;55800;54.272;18.558;2023-07-28T11:43:26;99702.72;;;21.90;57.84
68807;BME280;55800;54.272;18.558;2023-07-28T11:49:16;99698.47;;;22.13;57.31
68807;BME280;55800;54.272;18.558;2023-07-28T11:52:04;99682.53;;;22.18;57.66
68807;BME280;55800;54.272;18.558;2023-07-28T11:54:51;99690.41;;;22.29;57.13
68807;BME280;55800;54.272;18.558;2023-07-28T11:57:38;99693.88;;;22.39;56.79
68807;BME280;55800;54.272;18.558;2023-07-28T12:00:30;99693.50;;;22.34;56.22
68807;BME280;55800;54.272;18.558;2023-07-28T12:03:19;99697.66;;;22.46;56.18
68807;BME280;55800;54.272;18.558;2023-07-28T12:06:07;99700.09;;;22.57;56.30
68807;BME280;55800;54.272;18.558;2023-07-28T12:09:04;99694.91;;;22.72;56.20
68807;BME280;55800;54.272;18.558;2023-07-28T12:11:50;99706.91;;;22.87;56.77
68807;BME280;55800;54.272;18.558;2023-07-28T12:14:37;99700.69;;;23.02;56.83
68807;BME280;55800;54.272;18.558;2023-07-28T12:17:24;99701.56;;;23.11;56.95
68807;BME280;55800;54.272;18.558;2023-07-28T12:20:12;99704.47;;;23.17;55.85
68807;BME280;55800;54.272;18.558;2023-07-28T12:23:01;99706.19;;;23.26;56.07
68807;BME280;55800;54.272;18.558;2023-07-28T12:25:48;99706.25;;;23.35;56.06
68807;BME280;55800;54.272;18.558;2023-07-28T12:28:35;99708.13;;;23.34;55.88
68807;BME280;55800;54.272;18.558;2023-07-28T12:31:21;99718.31;;;23.32;55.28
68807;BME280;55800;54.272;18.558;2023-07-28T12:34:08;99720.59;;;23.37;55.69
68807;BME280;55800;54.272;18.558;2023-07-28T12:36:54;99724.00;;;23.39;55.66
68807;BME280;55800;54.272;18.558;2023-07-28T12:39:43;99718.19;;;23.34;54.95
68807;BME280;55800;54.272;18.558;2023-07-28T12:42:31;99720.91;;;23.34;54.80
68807;BME280;55800;54.272;18.558;2023-07-28T12:45:17;99712.91;;;23.40;55.43
68807;BME280;55800;54.272;18.558;2023-07-28T12:48:04;99719.41;;;23.39;55.23
68807;BME280;55800;54.272;18.558;2023-07-28T12:50:51;99719.75;;;23.52;55.35
68807;BME280;55800;54.272;18.558;2023-07-28T12:53:37;99719.75;;;23.52;53.35
68807;BME280;55800;54.272;18.558;2023-07-28T12:56:25;99720.41;;;23.54;53.53
68807;BME280;55800;54.272;18.558;2023-07-28T12:59:11;99724.88;;;23.63;53.60
68807;BME280;55800;54.272;18.558;2023-07-28T13:01:58;99730.69;;;23.68;53.98
68807;BME280;55800;54.272;18.558;2023-07-28T13:04:44;99734.09;;;23.78;53.36
68807;BME280;55800;54.272;18.558;2023-07-28T13:07:31;99733.09;;;23.79;53.55
68807;BME280;55800;54.272;18.558;2023-07-28T13:10:17;99732.25;;;23.79;53.03
68807;BME280;55800;54.272;18.558;2023-07-28T13:13:05;99727.09;;;23.76;53.25
68807;BME280;55800;54.272;18.558;2023-07-28T13:15:52;99735.47;;;23.82;53.45
68807;BME280;55800;54.272;18.558;2023-07-28T13:18:38;99734.59;;;23.74;53.61
68807;BME280;55800;54.272;18.558;2023-07-28T13:21:25;99733.56;;;23.67;53.46
68807;BME280;55800;54.272;18.558;2023-07-28T13:24:11;99732.19;;;23.63;52.97
68807;BME280;55800;54.272;18.558;2023-07-28T13:26:58;99733.44;;;23.68;53.88
68807;BME280;55800;54.272;18.558;2023-07-28T13:29:46;99730.50;;;23.62;53.63
68807;BME280;55800;54.272;18.558;2023-07-28T13:32:32;99723.34;;;23.61;53.96
68807;BME280;55800;54.272;18.558;2023-07-28T13:35:19;99736.78;;;23.54;53.06
68807;BME280;55800;54.272;18.558;2023-07-28T13:38:05;99739.03;;;23.59;52.89
68807;BME280;55800;54.272;18.558;2023-07-28T13:40:52;99743.63;;;23.58;53.17
68807;BME280;55800;54.272;18.558;2023-07-28T13:43:38;99747.75;;;23.62;53.41
68807;BME280;55800;54.272;18.558;2023-07-28T13:46:27;99757.13;;;23.68;54.23
68807;BME280;55800;54.272;18.558;2023-07-28T13:49:13;99748.63;;;23.79;53.56
68807;BME280;55800;54.272;18.558;2023-07-28T13:51:59;99751.00;;;23.82;53.62
68807;BME280;55800;54.272;18.558;2023-07-28T13:54:45;99756.13;;;23.85;52.95